Time;durP1;ratioP1;P1;durP2;ratioP2;P2;SDS_P1;SDS_P2;PMS_P1;PMS_P2;Temp;Humidity;BMP_temperature;BMP_pressure;BME280_temperature;BME280_humidity;BME280_pressure;Samples;Min_cycle;Max_cycle;Signal;HPM_P1;HPM_P2
2022/03/12 00:00:00;;;;;;;17.53;13.23;;;;;;;;;;5072072;28;20524;-78
2022/03/12 00:02:29;;;;;;;15.43;13.70;;;;;;;;;;5071701;28;20973;-78
2022/03/12 00:04:56;;;;;;;15.37;13.33;;;;;;;;;;5071184;28;20588;-78
2022/03/12 00:07:23;;;;;;;16.93;13.40;;;;;;;;;;5071549;28;20448;-79
2022/03/12 00:09:52;;;;;;;16.00;12.20;;;;;;;;;;5071011;28;20944;-77
2022/03/12 00:12:19;;;;;;;23.13;13.37;;;;;;;;;;5071438;28;20537;-77
2022/03/12 00:14:48;;;;;;;13.47;12.03;;;;;;;;;;5070815;28;20432;-78
2022/03/12 00:17:15;;;;;;;16.53;13.80;;;;;;;;;;5071398;28;20513;-79
2022/03/12 00:19:43;;;;;;;15.57;13.23;;;;;;;;;;5071352;28;20899;-77
2022/03/12 00:22:11;;;;;;;14.60;12.70;;;;;;;;;;5071205;28;20849;-77
2022/03/12 00:24:41;;;;;;;14.43;12.87;;;;;;;;;;5070383;28;21144;-78
2022/03/12 00:27:10;;;;;;;15.00;13.43;;;;;;;;;;5041026;28;20457;-77
2022/03/12 00:29:37;;;;;;;16.40;13.33;;;;;;;;;;5058236;28;20519;-77
2022/03/12 00:32:06;;;;;;;29.00;11.87;;;;;;;;;;5053374;28;20533;-77
2022/03/12 00:34:34;;;;;;;15.67;12.30;;;;;;;;;;5050568;28;20440;-77
2022/03/12 00:37:01;;;;;;;14.93;12.53;;;;;;;;;;5050556;28;20448;-78
2022/03/12 00:39:28;;;;;;;14.17;12.67;;;;;;;;;;5050369;28;20555;-77
2022/03/12 00:41:55;;;;;;;14.20;12.77;;;;;;;;;;5050485;28;20457;-78
2022/03/12 00:44:23;;;;;;;19.37;14.57;;;;;;;;;;5050434;28;20523;-77
2022/03/12 00:46:50;;;;;;;17.83;14.00;;;;;;;;;;5050740;28;20521;-77
2022/03/12 00:49:17;;;;;;;16.00;13.37;;;;;;;;;;5050862;28;20559;-77
2022/03/12 00:51:45;;;;;;;17.50;14.47;;;;;;;;;;5050625;28;20473;-77
2022/03/12 00:54:12;;;;;;;17.73;14.53;;;;;;;;;;5050269;28;20445;-77
2022/03/12 00:56:39;;;;;;;15.13;13.27;;;;;;;;;;5050321;28;20445;-78
2022/03/12 00:59:06;;;;;;;22.60;13.63;;;;;;;;;;5050851;28;20543;-77
2022/03/12 01:01:35;;;;;;;16.33;13.60;;;;;;;;;;5050190;28;20829;-76
2022/03/12 01:04:02;;;;;;;14.90;12.83;;;;;;;;;;5050152;28;20595;-77
2022/03/12 01:06:30;;;;;;;17.43;12.47;;;;;;;;;;5050454;28;20448;-77
2022/03/12 01:08:57;;;;;;;14.73;13.13;;;;;;;;;;5050537;28;20452;-77
2022/03/12 01:11:24;;;;;;;14.40;11.93;;;;;;;;;;5050631;28;20827;-79
2022/03/12 01:13:51;;;;;;;20.33;14.57;;;;;;;;;;5050723;28;20932;-77
2022/03/12 01:16:18;;;;;;;15.37;13.73;;;;;;;;;;5051089;28;20458;-78
2022/03/12 01:18:47;;;;;;;13.83;12.33;;;;;;;;;;5050565;28;20911;-78
2022/03/12 01:21:17;;;;;;;15.77;12.17;;;;;;;;;;5050518;28;20450;-77
2022/03/12 01:23:44;;;;;;;14.53;12.90;;;;;;;;;;5050706;28;20484;-77
2022/03/12 01:26:12;;;;;;;14.77;13.27;;;;;;;;;;5050566;28;20445;-78
2022/03/12 01:28:39;;;;;;;13.20;11.80;;;;;;;;;;5050204;28;20453;-77
2022/03/12 01:31:06;;;;;;;12.43;11.23;;;;;;;;;;5050305;28;20456;-77
2022/03/12 01:33:33;;;;;;;13.10;11.40;;;;;;;;;;5050071;28;20488;-78
2022/03/12 01:36:01;;;;;;;15.70;11.70;;;;;;;;;;5051011;28;20451;-77
2022/03/12 01:38:30;;;;;;;15.67;12.17;;;;;;;;;;5052147;28;20438;-77
2022/03/12 01:40:57;;;;;;;14.60;12.30;;;;;;;;;;5052507;28;20446;-77
2022/03/12 01:43:26;;;;;;;13.23;11.93;;;;;;;;;;5053523;28;20474;-77
2022/03/12 01:45:53;;;;;;;12.80;11.47;;;;;;;;;;5052439;28;20448;-78
2022/03/12 01:48:20;;;;;;;17.33;12.40;;;;;;;;;;5050833;28;20523;-78
2022/03/12 01:50:47;;;;;;;15.00;12.67;;;;;;;;;;5050107;28;20531;-77
2022/03/12 01:53:15;;;;;;;15.20;12.20;;;;;;;;;;5049956;28;20489;-77
2022/03/12 01:55:43;;;;;;;14.93;12.40;;;;;;;;;;5050167;28;20445;-77
2022/03/12 01:58:10;;;;;;;14.67;11.80;;;;;;;;;;5049608;28;20956;-77
2022/03/12 02:00:43;;;;;;;17.93;14.10;;;;;;;;;;5053468;28;20463;-76
2022/03/12 02:03:10;;;;;;;17.03;13.63;;;;;;;;;;5052148;28;20472;-78
2022/03/12 02:05:38;;;;;;;14.43;12.40;;;;;;;;;;5051218;28;20481;-77
2022/03/12 02:08:05;;;;;;;14.23;12.73;;;;;;;;;;5053460;28;20448;-77
2022/03/12 02:10:36;;;;;;;15.47;12.50;;;;;;;;;;5052465;28;20449;-78
2022/03/12 02:13:03;;;;;;;12.83;11.20;;;;;;;;;;5049872;28;20465;-78
2022/03/12 02:15:31;;;;;;;14.03;11.63;;;;;;;;;;5049528;28;20439;-78
2022/03/12 02:17:58;;;;;;;15.93;12.27;;;;;;;;;;5049565;28;20452;-78
2022/03/12 02:20:25;;;;;;;15.53;11.90;;;;;;;;;;5049874;28;20440;-77
2022/03/12 02:22:53;;;;;;;12.47;11.17;;;;;;;;;;5049452;28;20833;-77
2022/03/12 02:25:26;;;;;;;12.90;11.50;;;;;;;;;;5049787;28;20538;-78
2022/03/12 02:27:53;;;;;;;12.40;11.13;;;;;;;;;;5049719;28;20484;-77
2022/03/12 02:30:20;;;;;;;13.10;11.70;;;;;;;;;;5049556;28;20463;-77
2022/03/12 02:32:48;;;;;;;17.20;13.07;;;;;;;;;;5049443;28;20508;-77
2022/03/12 02:35:15;;;;;;;14.77;12.30;;;;;;;;;;5049617;28;20493;-78
2022/03/12 02:37:48;;;;;;;13.30;11.40;;;;;;;;;;5049141;28;20457;-77
2022/03/12 02:40:15;;;;;;;12.83;11.57;;;;;;;;;;5049455;28;20452;-78
2022/03/12 02:42:44;;;;;;;13.80;11.93;;;;;;;;;;5052431;28;20468;-77
2022/03/12 02:45:11;;;;;;;13.77;12.43;;;;;;;;;;5058692;28;20483;-77
2022/03/12 02:47:41;;;;;;;17.47;12.00;;;;;;;;;;5056850;28;20455;-78
2022/03/12 02:50:09;;;;;;;15.57;12.30;;;;;;;;;;5072033;28;20441;-77
2022/03/12 02:52:41;;;;;;;13.97;12.30;;;;;;;;;;5074200;28;20460;-76
2022/03/12 02:55:12;;;;;;;14.30;12.53;;;;;;;;;;5074130;28;20493;-78
2022/03/12 02:57:40;;;;;;;14.43;12.47;;;;;;;;;;5074553;28;20443;-78
2022/03/12 03:00:10;;;;;;;13.47;11.80;;;;;;;;;;5065153;28;20472;-79
2022/03/12 03:02:40;;;;;;;15.10;12.07;;;;;;;;;;5055135;28;20526;-77
2022/03/12 03:05:07;;;;;;;12.40;11.20;;;;;;;;;;5052460;28;20972;-77
2022/03/12 03:07:35;;;;;;;17.27;11.53;;;;;;;;;;5052788;28;20446;-77
2022/03/12 03:10:03;;;;;;;16.63;12.03;;;;;;;;;;5052256;28;20556;-77
2022/03/12 03:12:30;;;;;;;13.93;12.27;;;;;;;;;;5052544;28;20454;-77
2022/03/12 03:14:57;;;;;;;14.23;12.00;;;;;;;;;;5053647;28;20443;-77
2022/03/12 03:17:26;;;;;;;13.10;11.80;;;;;;;;;;5052518;28;20449;-77
2022/03/12 03:19:53;;;;;;;12.40;11.10;;;;;;;;;;5052816;28;20943;-77
2022/03/12 03:22:20;;;;;;;13.03;11.73;;;;;;;;;;5052127;28;20476;-78
2022/03/12 03:24:47;;;;;;;14.20;12.23;;;;;;;;;;5052225;28;20465;-78
2022/03/12 03:27:14;;;;;;;12.87;11.53;;;;;;;;;;5052467;28;20442;-77
2022/03/12 03:29:41;;;;;;;13.63;11.97;;;;;;;;;;5052433;28;20459;-76
2022/03/12 03:32:09;;;;;;;12.33;11.13;;;;;;;;;;5051905;28;21002;-77
2022/03/12 03:34:39;;;;;;;13.30;11.93;;;;;;;;;;5052004;28;20451;-77
2022/03/12 03:37:06;;;;;;;14.50;12.50;;;;;;;;;;5052224;28;20444;-77
2022/03/12 03:39:33;;;;;;;14.97;12.30;;;;;;;;;;5051775;28;20463;-77
2022/03/12 03:42:00;;;;;;;12.70;11.30;;;;;;;;;;5051914;28;20489;-77
2022/03/12 03:44:29;;;;;;;13.27;10.70;;;;;;;;;;5050477;28;20495;-78
2022/03/12 03:46:56;;;;;;;13.57;11.90;;;;;;;;;;5051822;28;20480;-76
2022/03/12 03:49:24;;;;;;;14.57;11.80;;;;;;;;;;5051689;28;20949;-77
2022/03/12 03:51:56;;;;;;;13.20;11.80;;;;;;;;;;5051039;28;20476;-77
2022/03/12 03:54:23;;;;;;;13.43;12.03;;;;;;;;;;5054889;28;20443;-76
2022/03/12 03:56:50;;;;;;;15.20;12.43;;;;;;;;;;5062986;28;20428;-76
2022/03/12 03:59:18;;;;;;;16.63;12.57;;;;;;;;;;5062970;28;20961;-76
2022/03/12 04:01:45;;;;;;;14.63;12.60;;;;;;;;;;5061300;28;20453;-77
2022/03/12 04:04:13;;;;;;;13.00;11.73;;;;;;;;;;5057555;28;20506;-76
2022/03/12 04:06:40;;;;;;;16.00;13.30;;;;;;;;;;5058476;28;20441;-76
2022/03/12 04:09:09;;;;;;;16.83;12.60;;;;;;;;;;5058337;28;20463;-76
2022/03/12 04:11:38;;;;;;;24.10;19.33;;;;;;;;;;5059981;28;20437;-76
2022/03/12 04:14:06;;;;;;;68.67;50.20;;;;;;;;;;5059679;28;20451;-77
2022/03/12 04:16:33;;;;;;;90.83;60.63;;;;;;;;;;5052593;28;20453;-76
2022/03/12 04:19:06;;;;;;;18.83;16.83;;;;;;;;;;5051156;28;20543;-77
2022/03/12 04:21:36;;;;;;;14.30;12.80;;;;;;;;;;5051339;28;20956;-77
2022/03/12 04:24:04;;;;;;;16.93;12.00;;;;;;;;;;5051018;28;20448;-77
2022/03/12 04:26:35;;;;;;;21.47;14.00;;;;;;;;;;5051173;28;20539;-78
2022/03/12 04:29:06;;;;;;;13.73;12.23;;;;;;;;;;5051464;28;20440;-77
2022/03/12 04:31:33;;;;;;;13.93;12.43;;;;;;;;;;5050810;28;20920;-78
2022/03/12 04:34:00;;;;;;;13.73;11.30;;;;;;;;;;5050796;28;20477;-76
2022/03/12 04:36:28;;;;;;;12.77;11.43;;;;;;;;;;5050915;28;20454;-76
2022/03/12 04:38:55;;;;;;;13.30;11.90;;;;;;;;;;5050522;28;20461;-77
2022/03/12 04:41:22;;;;;;;14.20;12.00;;;;;;;;;;5050791;28;20445;-76
2022/03/12 04:43:51;;;;;;;13.27;12.07;;;;;;;;;;5050559;28;21208;-77
2022/03/12 04:46:18;;;;;;;14.83;12.60;;;;;;;;;;5050600;28;20476;-77
2022/03/12 04:48:45;;;;;;;16.83;11.53;;;;;;;;;;5050547;28;20475;-77
2022/03/12 04:51:13;;;;;;;14.07;11.73;;;;;;;;;;5052672;28;20527;-78
2022/03/12 04:53:40;;;;;;;13.23;11.93;;;;;;;;;;5052815;28;20477;-77
2022/03/12 04:56:09;;;;;;;14.50;11.47;;;;;;;;;;5050634;28;20448;-76
2022/03/12 04:58:36;;;;;;;14.50;12.57;;;;;;;;;;5050348;28;20456;-77
2022/03/12 05:01:08;;;;;;;19.37;12.20;;;;;;;;;;5050592;28;20455;-77
2022/03/12 05:03:35;;;;;;;13.17;11.87;;;;;;;;;;5049777;28;20480;-78
2022/03/12 05:06:02;;;;;;;13.47;12.03;;;;;;;;;;5051219;28;20863;-77
2022/03/12 05:08:36;;;;;;;14.10;12.40;;;;;;;;;;5052340;28;20449;-77
2022/03/12 05:11:03;;;;;;;13.60;11.83;;;;;;;;;;5050331;28;20528;-78
2022/03/12 05:13:31;;;;;;;14.40;12.37;;;;;;;;;;5053217;28;20551;-77
2022/03/12 05:16:00;;;;;;;14.50;12.23;;;;;;;;;;5054393;28;20439;-77
2022/03/12 05:18:29;;;;;;;15.50;11.13;;;;;;;;;;5050543;28;20902;-77
2022/03/12 05:20:56;;;;;;;13.37;11.97;;;;;;;;;;5050500;28;20479;-77
2022/03/12 05:23:24;;;;;;;13.90;10.90;;;;;;;;;;5049989;28;20471;-77
2022/03/12 05:25:52;;;;;;;13.57;11.63;;;;;;;;;;5050652;28;20489;-77
2022/03/12 05:28:22;;;;;;;18.10;12.13;;;;;;;;;;5069497;28;20463;-76
2022/03/12 05:30:49;;;;;;;21.30;11.73;;;;;;;;;;5069821;28;20459;-77
2022/03/12 05:33:18;;;;;;;15.57;12.67;;;;;;;;;;5069560;28;20477;-77
2022/03/12 05:35:47;;;;;;;13.17;11.93;;;;;;;;;;5069892;28;20811;-76
2022/03/12 05:38:14;;;;;;;14.17;12.67;;;;;;;;;;5069688;28;21021;-77
2022/03/12 05:40:42;;;;;;;13.67;12.20;;;;;;;;;;5070563;28;20439;-77
2022/03/12 05:43:11;;;;;;;14.10;12.23;;;;;;;;;;5069368;28;20860;-77
2022/03/12 05:45:38;;;;;;;13.90;12.43;;;;;;;;;;5069636;28;20569;-77
2022/03/12 05:48:06;;;;;;;17.50;12.07;;;;;;;;;;5069639;28;20435;-77
2022/03/12 05:50:33;;;;;;;17.60;13.73;;;;;;;;;;5069696;28;20454;-77
2022/03/12 05:53:02;;;;;;;14.33;12.13;;;;;;;;;;5068914;28;20984;-76
2022/03/12 05:55:29;;;;;;;17.17;12.93;;;;;;;;;;5070748;28;20442;-77
2022/03/12 05:57:56;;;;;;;14.73;12.00;;;;;;;;;;5069613;28;20925;-76
2022/03/12 06:00:23;;;;;;;14.13;12.53;;;;;;;;;;5069715;28;20545;-76
2022/03/12 06:02:52;;;;;;;15.97;12.87;;;;;;;;;;5069440;28;20479;-77
2022/03/12 06:05:20;;;;;;;16.70;12.90;;;;;;;;;;5071096;28;20572;-77
2022/03/12 06:07:49;;;;;;;18.20;13.00;;;;;;;;;;5069482;28;20475;-78
2022/03/12 06:10:20;;;;;;;16.23;12.73;;;;;;;;;;5069475;28;20453;-77
2022/03/12 06:12:47;;;;;;;15.10;11.37;;;;;;;;;;5069132;28;20594;-76
2022/03/12 06:15:15;;;;;;;14.40;11.93;;;;;;;;;;5069972;28;20442;-78
2022/03/12 06:17:42;;;;;;;15.63;12.47;;;;;;;;;;5074704;28;20446;-77
2022/03/12 06:20:10;;;;;;;17.47;12.73;;;;;;;;;;5075025;28;20453;-77
2022/03/12 06:22:37;;;;;;;15.00;12.40;;;;;;;;;;5074114;28;20520;-77
2022/03/12 06:25:05;;;;;;;13.27;11.87;;;;;;;;;;5073588;28;20469;-78
2022/03/12 06:27:34;;;;;;;14.57;12.17;;;;;;;;;;5073279;28;20478;-77
2022/03/12 06:30:02;;;;;;;15.90;12.40;;;;;;;;;;5075047;28;20449;-77
2022/03/12 06:32:31;;;;;;;12.50;11.17;;;;;;;;;;5075217;28;20465;-78
2022/03/12 06:34:59;;;;;;;13.47;12.07;;;;;;;;;;5073954;28;20451;-77
2022/03/12 06:37:26;;;;;;;14.17;12.10;;;;;;;;;;5073991;28;20448;-78
2022/03/12 06:39:55;;;;;;;13.90;12.20;;;;;;;;;;5073789;28;20489;-76
2022/03/12 06:42:23;;;;;;;12.93;11.63;;;;;;;;;;5073369;28;20463;-77
2022/03/12 06:44:54;;;;;;;11.97;10.87;;;;;;;;;;5072597;28;21117;-77
2022/03/12 06:47:28;;;;;;;12.77;11.07;;;;;;;;;;5072667;28;20470;-77
2022/03/12 06:49:56;;;;;;;12.43;11.10;;;;;;;;;;5072973;28;20525;-77
2022/03/12 06:52:23;;;;;;;13.67;12.10;;;;;;;;;;5072647;28;20468;-77
2022/03/12 06:54:51;;;;;;;16.03;11.63;;;;;;;;;;5072586;28;20452;-77
2022/03/12 06:57:18;;;;;;;12.97;11.53;;;;;;;;;;5072631;28;20575;-77
2022/03/12 06:59:45;;;;;;;12.67;11.47;;;;;;;;;;5072335;28;20459;-79
2022/03/12 07:02:13;;;;;;;14.43;11.93;;;;;;;;;;5072002;28;21046;-77
2022/03/12 07:04:40;;;;;;;12.83;11.47;;;;;;;;;;5072324;28;20453;-79
2022/03/12 07:07:07;;;;;;;12.10;10.90;;;;;;;;;;5072417;28;20543;-77
2022/03/12 07:09:35;;;;;;;15.33;11.40;;;;;;;;;;5072515;28;20452;-77
2022/03/12 07:12:03;;;;;;;12.50;11.17;;;;;;;;;;5072594;28;20553;-77
2022/03/12 07:14:31;;;;;;;14.17;12.00;;;;;;;;;;5072640;28;20451;-78
2022/03/12 07:16:58;;;;;;;14.80;11.30;;;;;;;;;;5072275;28;20961;-78
2022/03/12 07:19:26;;;;;;;13.93;12.50;;;;;;;;;;5072801;28;20929;-79
2022/03/12 07:21:53;;;;;;;26.10;18.70;;;;;;;;;;5072591;28;20557;-77
2022/03/12 07:24:20;;;;;;;23.70;15.17;;;;;;;;;;5072355;28;20461;-78
2022/03/12 07:26:47;;;;;;;15.00;11.40;;;;;;;;;;5071267;28;21143;-77
2022/03/12 07:29:14;;;;;;;19.90;12.60;;;;;;;;;;5072731;28;20446;-78
2022/03/12 07:31:41;;;;;;;14.50;12.30;;;;;;;;;;5073121;28;20468;-78
2022/03/12 07:34:08;;;;;;;15.50;12.60;;;;;;;;;;5072954;28;20452;-78
2022/03/12 07:36:37;;;;;;;15.20;12.90;;;;;;;;;;5061701;28;20445;-78
2022/03/12 07:39:04;;;;;;;13.33;11.90;;;;;;;;;;5069517;28;20719;-78
2022/03/12 07:41:31;;;;;;;14.90;12.73;;;;;;;;;;5072510;28;20819;-79
2022/03/12 07:43:59;;;;;;;13.20;11.80;;;;;;;;;;5072204;28;20488;-78
2022/03/12 07:46:26;;;;;;;15.30;12.80;;;;;;;;;;5072281;28;20476;-78
2022/03/12 07:48:53;;;;;;;14.23;12.73;;;;;;;;;;5057761;28;20464;-79
2022/03/12 07:51:20;;;;;;;12.83;11.40;;;;;;;;;;5052889;28;20460;-80
2022/03/12 07:53:48;;;;;;;12.53;11.23;;;;;;;;;;5053230;28;20450;-78
2022/03/12 07:56:17;;;;;;;14.00;12.20;;;;;;;;;;5054221;28;20457;-78
2022/03/12 07:58:44;;;;;;;14.03;11.67;;;;;;;;;;5056783;28;20456;-78
2022/03/12 08:01:11;;;;;;;13.37;11.97;;;;;;;;;;5054467;28;20553;-78
2022/03/12 08:03:38;;;;;;;15.30;11.93;;;;;;;;;;5051958;28;20472;-79
2022/03/12 08:06:06;;;;;;;16.57;12.73;;;;;;;;;;5052356;28;20485;-77
2022/03/12 08:08:33;;;;;;;15.10;12.90;;;;;;;;;;5051978;28;20511;-78
2022/03/12 08:13:47;;;;;;;13.47;12.07;;;;;;;;;;5057647;28;20410;-79
2022/03/12 08:16:15;;;;;;;13.93;11.60;;;;;;;;;;5055031;28;20451;-77
2022/03/12 08:18:42;;;;;;;16.33;13.03;;;;;;;;;;5059401;28;20454;-77
2022/03/12 08:21:10;;;;;;;15.20;13.60;;;;;;;;;;5059315;28;20987;-77
2022/03/12 08:23:37;;;;;;;13.17;11.83;;;;;;;;;;5057867;28;20469;-77
2022/03/12 08:26:06;;;;;;;16.03;13.03;;;;;;;;;;5054417;28;20481;-78
2022/03/12 08:28:34;;;;;;;16.07;13.60;;;;;;;;;;5053547;28;20452;-78
2022/03/12 08:31:02;;;;;;;14.77;12.50;;;;;;;;;;5052982;28;20450;-79
2022/03/12 08:33:29;;;;;;;15.13;13.57;;;;;;;;;;5051660;28;20465;-77
2022/03/12 08:35:57;;;;;;;15.90;13.90;;;;;;;;;;5051701;28;20438;-78
2022/03/12 08:38:24;;;;;;;15.77;14.17;;;;;;;;;;5055729;28;20497;-77
2022/03/12 08:40:52;;;;;;;18.20;14.00;;;;;;;;;;5053867;28;20454;-77
2022/03/12 08:43:21;;;;;;;18.50;15.13;;;;;;;;;;5052153;28;20500;-79
2022/03/12 08:45:49;;;;;;;15.73;14.07;;;;;;;;;;5052014;28;20584;-78
2022/03/12 08:48:16;;;;;;;15.90;14.30;;;;;;;;;;5051511;28;20616;-79
2022/03/12 08:50:43;;;;;;;17.60;14.37;;;;;;;;;;5051935;28;20477;-79
2022/03/12 08:53:11;;;;;;;17.03;14.93;;;;;;;;;;5051400;28;20489;-78
2022/03/12 08:55:38;;;;;;;14.90;13.30;;;;;;;;;;5051707;28;20449;-79
2022/03/12 08:58:05;;;;;;;16.43;14.37;;;;;;;;;;5051316;28;20446;-78
2022/03/12 09:00:34;;;;;;;15.43;13.93;;;;;;;;;;5051108;28;20477;-78
2022/03/12 09:03:01;;;;;;;15.00;13.33;;;;;;;;;;5050207;28;20535;-79
2022/03/12 09:05:28;;;;;;;15.07;13.50;;;;;;;;;;5051066;28;20438;-77
2022/03/12 09:07:56;;;;;;;17.10;14.20;;;;;;;;;;5049163;28;20455;-80
2022/03/12 09:10:23;;;;;;;16.30;12.90;;;;;;;;;;5036869;28;20458;-80
2022/03/12 09:12:50;;;;;;;16.10;13.77;;;;;;;;;;5037053;28;20474;-80
2022/03/12 09:15:21;;;;;;;15.33;13.73;;;;;;;;;;5039517;28;20434;-80
2022/03/12 09:17:49;;;;;;;16.63;14.07;;;;;;;;;;5046191;28;20476;-80
2022/03/12 09:20:19;;;;;;;15.47;13.90;;;;;;;;;;5070579;28;20428;-81
2022/03/12 09:22:47;;;;;;;15.20;13.40;;;;;;;;;;5062325;28;20457;-80
2022/03/12 09:25:15;;;;;;;16.90;13.70;;;;;;;;;;5059184;28;20450;-81
2022/03/12 09:27:43;;;;;;;17.63;13.87;;;;;;;;;;5065437;28;20477;-80
2022/03/12 09:30:10;;;;;;;16.03;13.77;;;;;;;;;;5060988;28;20434;-80
2022/03/12 09:32:38;;;;;;;17.87;15.43;;;;;;;;;;5062803;28;20493;-81
2022/03/12 09:35:07;;;;;;;16.10;14.53;;;;;;;;;;5071573;28;20441;-81
2022/03/12 09:37:38;;;;;;;16.50;14.83;;;;;;;;;;5060604;28;20469;-80
2022/03/12 09:40:05;;;;;;;15.87;14.37;;;;;;;;;;5058281;28;20480;-79
2022/03/12 09:42:32;;;;;;;19.70;15.47;;;;;;;;;;5043381;28;20515;-81
2022/03/12 09:45:00;;;;;;;18.10;15.40;;;;;;;;;;5046133;28;20450;-81
2022/03/12 09:47:27;;;;;;;18.17;16.07;;;;;;;;;;5057546;28;20532;-81
2022/03/12 09:49:54;;;;;;;16.30;14.60;;;;;;;;;;5058050;28;20436;-80
2022/03/12 09:52:22;;;;;;;18.47;16.67;;;;;;;;;;5059264;28;20465;-80
2022/03/12 09:54:49;;;;;;;18.73;14.90;;;;;;;;;;5056977;28;20483;-82
2022/03/12 09:57:16;;;;;;;17.30;15.60;;;;;;;;;;5057713;28;20442;-81
2022/03/12 09:59:43;;;;;;;17.70;15.93;;;;;;;;;;5057579;28;20541;-81
2022/03/12 10:02:10;;;;;;;17.50;15.60;;;;;;;;;;5057701;28;20500;-81
2022/03/12 10:04:37;;;;;;;19.77;15.90;;;;;;;;;;5057551;28;20447;-81
2022/03/12 10:07:09;;;;;;;16.77;15.07;;;;;;;;;;5058359;28;20475;-80
2022/03/12 10:09:38;;;;;;;17.83;15.97;;;;;;;;;;5057691;28;20468;-80
2022/03/12 10:12:06;;;;;;;19.43;16.77;;;;;;;;;;5058325;28;20470;-81
2022/03/12 10:14:33;;;;;;;18.70;16.30;;;;;;;;;;5057543;28;20445;-81
2022/03/12 10:17:02;;;;;;;18.73;16.73;;;;;;;;;;5057864;28;20921;-80
2022/03/12 10:19:30;;;;;;;20.20;15.70;;;;;;;;;;5057592;28;20449;-82
2022/03/12 10:21:57;;;;;;;16.30;14.80;;;;;;;;;;5058170;28;20529;-81
2022/03/12 10:24:25;;;;;;;17.90;16.10;;;;;;;;;;5055869;28;20450;-82
2022/03/12 10:26:53;;;;;;;17.67;15.63;;;;;;;;;;5060676;28;20485;-82
2022/03/12 10:29:20;;;;;;;18.03;16.23;;;;;;;;;;5059997;28;20499;-83
2022/03/12 10:31:48;;;;;;;18.10;16.40;;;;;;;;;;5059243;28;20472;-82
2022/03/12 10:34:16;;;;;;;19.23;16.57;;;;;;;;;;5058565;28;20821;-81
2022/03/12 10:36:43;;;;;;;17.23;15.50;;;;;;;;;;5059426;28;20441;-81
2022/03/12 10:39:11;;;;;;;18.13;16.27;;;;;;;;;;5058150;28;20461;-82
2022/03/12 10:41:38;;;;;;;18.67;16.57;;;;;;;;;;5059158;28;20815;-82
2022/03/12 10:44:06;;;;;;;19.57;16.37;;;;;;;;;;5060889;28;20884;-80
2022/03/12 10:46:35;;;;;;;19.03;17.03;;;;;;;;;;5059668;28;20484;-81
2022/03/12 10:49:03;;;;;;;17.93;16.13;;;;;;;;;;5059380;28;20445;-79
2022/03/12 10:51:32;;;;;;;18.20;16.20;;;;;;;;;;5057843;28;20441;-82
2022/03/12 10:54:05;;;;;;;17.43;15.67;;;;;;;;;;5058353;28;20808;-82
2022/03/12 10:56:43;;;;;;;20.17;17.60;;;;;;;;;;5060469;28;20473;-81
2022/03/12 10:59:16;;;;;;;17.30;15.60;;;;;;;;;;5062409;28;20865;-80
2022/03/12 11:01:46;;;;;;;18.63;16.90;;;;;;;;;;5064536;28;20496;-80
2022/03/12 11:04:17;;;;;;;19.10;17.20;;;;;;;;;;5070174;28;20453;-80
2022/03/12 11:06:45;;;;;;;19.30;16.90;;;;;;;;;;5076004;28;20489;-81
2022/03/12 11:09:15;;;;;;;18.70;16.80;;;;;;;;;;5065622;28;20509;-81
2022/03/12 11:11:45;;;;;;;16.97;15.33;;;;;;;;;;5063989;28;20500;-81
2022/03/12 11:14:15;;;;;;;18.97;16.20;;;;;;;;;;5062671;28;20446;-80
2022/03/12 11:16:47;;;;;;;16.30;14.70;;;;;;;;;;5071256;28;20444;-81
2022/03/12 11:19:15;;;;;;;17.80;16.00;;;;;;;;;;5078366;28;20433;-81
2022/03/12 11:21:44;;;;;;;15.60;14.00;;;;;;;;;;5076988;28;20480;-81
2022/03/12 11:24:15;;;;;;;20.67;13.57;;;;;;;;;;5077242;28;20509;-80
2022/03/12 11:26:49;;;;;;;16.50;15.00;;;;;;;;;;5075201;28;20470;-82
2022/03/12 11:29:18;;;;;;;19.20;15.13;;;;;;;;;;5073793;28;20430;-79
2022/03/12 11:31:48;;;;;;;16.03;14.43;;;;;;;;;;5076447;28;20508;-81
2022/03/12 11:34:23;;;;;;;17.10;15.30;;;;;;;;;;5068114;28;20446;-81
2022/03/12 11:37:05;;;;;;;15.83;14.33;;;;;;;;;;5065095;28;20980;-81
2022/03/12 11:39:33;;;;;;;15.20;13.90;;;;;;;;;;5063915;28;20489;-80
2022/03/12 11:42:06;;;;;;;18.80;15.10;;;;;;;;;;5067442;28;21095;-81
2022/03/12 11:44:35;;;;;;;15.67;14.23;;;;;;;;;;5063896;28;20456;-81
2022/03/12 11:47:03;;;;;;;16.13;14.53;;;;;;;;;;5065452;28;20480;-81
2022/03/12 11:49:32;;;;;;;14.87;13.37;;;;;;;;;;5062558;28;20469;-81
2022/03/12 11:52:00;;;;;;;16.00;14.40;;;;;;;;;;5061527;28;20519;-81
2022/03/12 11:54:27;;;;;;;15.60;14.10;;;;;;;;;;5065274;28;21107;-79
2022/03/12 11:56:54;;;;;;;15.90;14.20;;;;;;;;;;5065660;28;20445;-79
2022/03/12 11:59:22;;;;;;;16.37;14.73;;;;;;;;;;5064442;28;20461;-81
2022/03/12 12:02:04;;;;;;;14.70;13.30;;;;;;;;;;5064091;28;20473;-82
2022/03/12 12:04:34;;;;;;;15.03;13.63;;;;;;;;;;5062413;28;20898;-82
2022/03/12 12:07:02;;;;;;;15.40;13.87;;;;;;;;;;5062447;28;20521;-80
2022/03/12 12:09:30;;;;;;;16.53;14.93;;;;;;;;;;5061570;28;20979;-82
2022/03/12 12:11:58;;;;;;;16.67;15.03;;;;;;;;;;5060499;28;20466;-79
2022/03/12 12:14:26;;;;;;;15.00;13.50;;;;;;;;;;5061877;28;20445;-80
2022/03/12 12:16:57;;;;;;;15.20;13.73;;;;;;;;;;5060670;28;20454;-81
2022/03/12 12:19:24;;;;;;;16.33;14.40;;;;;;;;;;5053717;28;20485;-80
2022/03/12 12:21:56;;;;;;;14.20;12.90;;;;;;;;;;5070683;28;20456;-82
2022/03/12 12:24:25;;;;;;;14.70;13.20;;;;;;;;;;5058773;28;20937;-80
2022/03/12 12:27:02;;;;;;;15.50;14.00;;;;;;;;;;5060619;28;20477;-82
2022/03/12 12:29:38;;;;;;;16.33;14.63;;;;;;;;;;5059969;28;20445;-81
2022/03/12 12:32:05;;;;;;;16.13;14.63;;;;;;;;;;5061222;28;20510;-79
2022/03/12 12:34:34;;;;;;;10.67;9.67;;;;;;;;;;5061369;28;20833;-81
2022/03/12 12:37:03;;;;;;;10.80;9.70;;;;;;;;;;5060997;28;20442;-82
2022/03/12 12:39:30;;;;;;;11.57;9.20;;;;;;;;;;5058899;28;20465;-80
2022/03/12 12:42:01;;;;;;;9.90;9.00;;;;;;;;;;5062500;28;20465;-81
2022/03/12 12:44:41;;;;;;;11.73;10.70;;;;;;;;;;5062010;28;20854;-81
2022/03/12 12:47:17;;;;;;;13.20;12.00;;;;;;;;;;5059977;28;20483;-81
2022/03/12 12:49:51;;;;;;;12.40;11.10;;;;;;;;;;5058950;28;20451;-80
2022/03/12 12:52:19;;;;;;;11.87;10.77;;;;;;;;;;5058415;28;20465;-82
2022/03/12 12:55:00;;;;;;;13.67;12.27;;;;;;;;;;5059459;28;20452;-80
2022/03/12 12:57:43;;;;;;;13.47;12.37;;;;;;;;;;5059276;28;20437;-81
2022/03/12 13:00:31;;;;;;;12.60;11.30;;;;;;;;;;5059275;28;20458;-81
2022/03/12 13:03:00;;;;;;;11.33;10.33;;;;;;;;;;5058565;28;20519;-80
2022/03/12 13:05:42;;;;;;;12.40;11.30;;;;;;;;;;5057294;28;20445;-81
2022/03/12 13:08:10;;;;;;;11.60;10.50;;;;;;;;;;5056247;28;20535;-81
2022/03/12 13:10:37;;;;;;;10.17;9.30;;;;;;;;;;5053564;28;20457;-81
2022/03/12 13:13:12;;;;;;;9.63;8.73;;;;;;;;;;5052956;28;20517;-81
2022/03/12 13:15:40;;;;;;;9.50;8.47;;;;;;;;;;5053081;28;20518;-78
2022/03/12 13:18:26;;;;;;;9.43;8.53;;;;;;;;;;5053007;28;20444;-80
2022/03/12 13:20:53;;;;;;;9.53;8.73;;;;;;;;;;5043721;28;20574;-81
2022/03/12 13:23:28;;;;;;;10.13;9.23;;;;;;;;;;5053348;28;20462;-82
2022/03/12 13:25:57;;;;;;;9.33;8.53;;;;;;;;;;5053824;28;20802;-81
2022/03/12 13:28:39;;;;;;;9.93;8.87;;;;;;;;;;5053733;28;20560;-80
2022/03/12 13:31:27;;;;;;;10.37;9.43;;;;;;;;;;5054137;28;20862;-80
2022/03/12 13:33:58;;;;;;;9.57;8.63;;;;;;;;;;5054105;28;20450;-81
2022/03/12 13:36:27;;;;;;;8.53;7.83;;;;;;;;;;5054130;28;20434;-82
2022/03/12 13:38:56;;;;;;;9.53;8.70;;;;;;;;;;5057900;28;20453;-81
2022/03/12 13:41:23;;;;;;;9.57;8.77;;;;;;;;;;5059370;28;20453;-81
2022/03/12 13:43:51;;;;;;;10.90;9.83;;;;;;;;;;5057378;28;20511;-80
2022/03/12 13:46:20;;;;;;;9.97;9.07;;;;;;;;;;5058728;28;20450;-80
2022/03/12 13:48:58;;;;;;;9.60;8.80;;;;;;;;;;5057830;28;20477;-80
2022/03/12 13:51:25;;;;;;;10.37;9.47;;;;;;;;;;5056992;28;20445;-82
2022/03/12 13:53:55;;;;;;;9.53;8.67;;;;;;;;;;5057853;28;20528;-81
2022/03/12 13:56:23;;;;;;;10.23;9.33;;;;;;;;;;5058369;28;20512;-80
2022/03/12 13:58:50;;;;;;;10.00;9.10;;;;;;;;;;5060939;28;20442;-81
2022/03/12 14:01:29;;;;;;;10.43;9.17;;;;;;;;;;5060349;28;20784;-81
2022/03/12 14:03:57;;;;;;;10.60;9.70;;;;;;;;;;5061778;28;20477;-81
2022/03/12 14:06:31;;;;;;;10.67;9.67;;;;;;;;;;5064061;28;20449;-79
2022/03/12 14:09:02;;;;;;;10.40;9.60;;;;;;;;;;5063382;28;20555;-81
2022/03/12 14:11:30;;;;;;;10.10;9.20;;;;;;;;;;5064853;28;20511;-80
2022/03/12 14:13:59;;;;;;;10.93;9.40;;;;;;;;;;5064841;28;20444;-82
2022/03/12 14:16:26;;;;;;;10.40;9.40;;;;;;;;;;5060988;28;20442;-81
2022/03/12 14:18:56;;;;;;;11.30;10.30;;;;;;;;;;5058426;28;20441;-82
2022/03/12 14:21:35;;;;;;;12.90;11.70;;;;;;;;;;5059408;28;20843;-81
2022/03/12 14:24:09;;;;;;;10.47;9.40;;;;;;;;;;5061397;28;20449;-81
2022/03/12 14:26:44;;;;;;;9.97;9.13;;;;;;;;;;5064416;28;20445;-82
2022/03/12 14:29:11;;;;;;;12.50;9.63;;;;;;;;;;5064495;28;20488;-81